sensor_id;sensor_type;location;lat;lon;timestamp;pressure;altitude;pressure_sealevel;temperature;humidity
53011;BME280;42803;55.762;38.084;2023-05-21T00:00:34;100212.72;;;8.73;100.00
53011;BME280;42803;55.762;38.084;2023-05-21T00:03:03;100216.41;;;8.75;100.00
53011;BME280;42803;55.762;38.084;2023-05-21T00:05:32;100213.94;;;8.77;100.00
53011;BME280;42803;55.762;38.084;2023-05-21T00:08:04;100213.94;;;8.77;100.00
53011;BME280;42803;55.762;38.084;2023-05-21T00:10:33;100212.41;;;8.79;100.00
53011;BME280;42803;55.762;38.084;2023-05-21T00:13:02;100209.63;;;8.77;100.00
53011;BME280;42803;55.762;38.084;2023-05-21T00:15:31;100207.97;;;8.78;100.00
53011;BME280;42803;55.762;38.084;2023-05-21T00:18:00;100207.97;;;8.78;100.00
53011;BME280;42803;55.762;38.084;2023-05-21T00:20:30;100208.72;;;8.77;100.00
53011;BME280;42803;55.762;38.084;2023-05-21T00:23:00;100202.91;;;8.79;100.00
53011;BME280;42803;55.762;38.084;2023-05-21T00:25:32;100207.19;;;8.79;100.00
53011;BME280;42803;55.762;38.084;2023-05-21T00:28:01;100210.59;;;8.78;100.00
53011;BME280;42803;55.762;38.084;2023-05-21T00:30:30;100209.03;;;8.80;100.00
53011;BME280;42803;55.762;38.084;2023-05-21T00:32:59;100209.03;;;8.80;100.00
53011;BME280;42803;55.762;38.084;2023-05-21T00:35:29;100206.28;;;8.78;100.00
53011;BME280;42803;55.762;38.084;2023-05-21T00:37:59;100212.88;;;8.75;100.00
53011;BME280;42803;55.762;38.084;2023-05-21T00:40:29;100207.69;;;8.75;100.00
53011;BME280;42803;55.762;38.084;2023-05-21T00:43:00;100210.28;;;8.75;100.00
53011;BME280;42803;55.762;38.084;2023-05-21T00:45:29;100212.09;;;8.76;100.00
53011;BME280;42803;55.762;38.084;2023-05-21T00:47:58;100213.19;;;8.78;100.00
53011;BME280;42803;55.762;38.084;2023-05-21T00:50:29;100209.81;;;8.79;100.00
53011;BME280;42803;55.762;38.084;2023-05-21T00:52:58;100202.00;;;8.79;100.00
53011;BME280;42803;55.762;38.084;2023-05-21T00:55:28;100210.84;;;8.81;100.00
53011;BME280;42803;55.762;38.084;2023-05-21T00:57:57;100212.72;;;8.82;100.00
53011;BME280;42803;55.762;38.084;2023-05-21T01:00:28;100204.13;;;8.83;100.00
53011;BME280;42803;55.762;38.084;2023-05-21T01:02:57;100211.94;;;8.83;100.00
53011;BME280;42803;55.762;38.084;2023-05-21T01:05:26;100208.25;;;8.81;100.00
53011;BME280;42803;55.762;38.084;2023-05-21T01:07:56;100213.44;;;8.81;100.00
53011;BME280;42803;55.762;38.084;2023-05-21T01:10:27;100208.41;;;8.83;100.00
53011;BME280;42803;55.762;38.084;2023-05-21T01:12:57;100209.31;;;8.83;100.00
53011;BME280;42803;55.762;38.084;2023-05-21T01:15:28;100218.19;;;8.85;100.00
53011;BME280;42803;55.762;38.084;2023-05-21T01:17:58;100222.63;;;8.86;100.00
53011;BME280;42803;55.762;38.084;2023-05-21T01:20:28;100219.88;;;8.85;100.00
53011;BME280;42803;55.762;38.084;2023-05-21T01:23:00;100218.19;;;8.85;100.00
53011;BME280;42803;55.762;38.084;2023-05-21T01:25:30;100214.19;;;8.89;100.00
53011;BME280;42803;55.762;38.084;2023-05-21T01:27:59;100217.72;;;8.89;100.00
53011;BME280;42803;55.762;38.084;2023-05-21T01:30:28;100217.09;;;8.92;100.00
53011;BME280;42803;55.762;38.084;2023-05-21T01:33:02;100220.59;;;8.92;100.00
53011;BME280;42803;55.762;38.084;2023-05-21T01:35:34;100218.16;;;8.94;100.00
53011;BME280;42803;55.762;38.084;2023-05-21T01:38:15;100221.06;;;8.97;100.00
53011;BME280;42803;55.762;38.084;2023-05-21T01:40:49;100218.28;;;8.95;100.00
53011;BME280;42803;55.762;38.084;2023-05-21T01:43:21;100222.72;;;8.96;100.00
53011;BME280;42803;55.762;38.084;2023-05-21T01:45:53;100222.09;;;8.99;100.00
53011;BME280;42803;55.762;38.084;2023-05-21T01:48:23;100221.47;;;9.01;100.00
53011;BME280;42803;55.762;38.084;2023-05-21T01:50:54;100219.31;;;9.06;100.00
53011;BME280;42803;55.762;38.084;2023-05-21T01:53:25;100221.72;;;9.13;100.00
53011;BME280;42803;55.762;38.084;2023-05-21T01:55:54;100218.00;;;9.20;100.00
53011;BME280;42803;55.762;38.084;2023-05-21T01:58:23;100220.75;;;9.21;100.00
53011;BME280;42803;55.762;38.084;2023-05-21T02:00:52;100212.44;;;9.25;100.00
53011;BME280;42803;55.762;38.084;2023-05-21T02:03:24;100215.47;;;9.30;100.00
53011;BME280;42803;55.762;38.084;2023-05-21T02:05:54;100219.78;;;9.30;100.00
53011;BME280;42803;55.762;38.084;2023-05-21T02:08:25;100214.50;;;9.38;100.00
53011;BME280;42803;55.762;38.084;2023-05-21T02:10:55;100220.00;;;9.41;100.00
53011;BME280;42803;55.762;38.084;2023-05-21T02:13:24;100221.56;;;9.39;100.00
53011;BME280;42803;55.762;38.084;2023-05-21T02:15:54;100220.00;;;9.41;100.00
53011;BME280;42803;55.762;38.084;2023-05-21T02:18:24;100215.97;;;9.45;100.00
53011;BME280;42803;55.762;38.084;2023-05-21T02:20:56;100213.53;;;9.46;100.00
53011;BME280;42803;55.762;38.084;2023-05-21T02:23:26;100219.69;;;9.38;100.00
53011;BME280;42803;55.762;38.084;2023-05-21T02:25:55;100217.25;;;9.40;100.00
53011;BME280;42803;55.762;38.084;2023-05-21T02:28:25;100218.94;;;9.39;100.00
53011;BME280;42803;55.762;38.084;2023-05-21T02:30:56;100222.19;;;9.37;100.00
53011;BME280;42803;55.762;38.084;2023-05-21T02:33:26;100224.66;;;9.35;100.00
53011;BME280;42803;55.762;38.084;2023-05-21T02:35:55;100228.00;;;9.34;100.00
53011;BME280;42803;55.762;38.084;2023-05-21T02:38:26;100220.19;;;9.34;100.00
53011;BME280;42803;55.762;38.084;2023-05-21T02:40:55;100225.91;;;9.30;100.00
53011;BME280;42803;55.762;38.084;2023-05-21T02:43:24;100233.56;;;9.28;100.00
53011;BME280;42803;55.762;38.084;2023-05-21T02:45:53;100237.38;;;9.32;100.00
53011;BME280;42803;55.762;38.084;2023-05-21T02:48:24;100229.56;;;9.32;100.00
53011;BME280;42803;55.762;38.084;2023-05-21T02:50:53;100222.38;;;9.30;100.00
53011;BME280;42803;55.762;38.084;2023-05-21T02:53:22;100232.31;;;9.34;100.00
53011;BME280;42803;55.762;38.084;2023-05-21T02:55:53;100230.91;;;9.37;100.00
53011;BME280;42803;55.762;38.084;2023-05-21T02:58:23;100230.72;;;9.44;100.00
53011;BME280;42803;55.762;38.084;2023-05-21T03:00:52;100237.00;;;9.46;100.00
53011;BME280;42803;55.762;38.084;2023-05-21T03:03:21;100235.53;;;9.59;100.00
53011;BME280;42803;55.762;38.084;2023-05-21T03:05:50;100240.03;;;9.70;100.00
53011;BME280;42803;55.762;38.084;2023-05-21T03:08:19;100235.03;;;9.63;100.00
53011;BME280;42803;55.762;38.084;2023-05-21T03:10:49;100228.25;;;9.65;100.00
53011;BME280;42803;55.762;38.084;2023-05-21T03:13:19;100229.16;;;9.65;100.00
53011;BME280;42803;55.762;38.084;2023-05-21T03:15:49;100227.69;;;9.59;100.00
53011;BME280;42803;55.762;38.084;2023-05-21T03:18:22;100232.75;;;9.57;100.00
53011;BME280;42803;55.762;38.084;2023-05-21T03:20:52;100230.34;;;9.50;100.00
53011;BME280;42803;55.762;38.084;2023-05-21T03:23:21;100231.53;;;9.53;100.00
53011;BME280;42803;55.762;38.084;2023-05-21T03:25:50;100236.06;;;9.65;100.00
53011;BME280;42803;55.762;38.084;2023-05-21T03:28:21;100236.50;;;9.50;100.00
53011;BME280;42803;55.762;38.084;2023-05-21T03:30:50;100237.34;;;9.60;100.00
53011;BME280;42803;55.762;38.084;2023-05-21T03:33:39;100236.66;;;9.71;100.00
53011;BME280;42803;55.762;38.084;2023-05-21T03:36:22;100236.50;;;9.88;100.00
53011;BME280;42803;55.762;38.084;2023-05-21T03:38:52;100236.72;;;9.81;100.00
53011;BME280;42803;55.762;38.084;2023-05-21T03:41:21;100246.94;;;9.88;100.00
53011;BME280;42803;55.762;38.084;2023-05-21T03:43:57;100236.56;;;9.98;100.00
53011;BME280;42803;55.762;38.084;2023-05-21T03:46:31;100240.34;;;10.02;100.00
53011;BME280;42803;55.762;38.084;2023-05-21T03:49:07;100241.34;;;9.94;100.00
53011;BME280;42803;55.762;38.084;2023-05-21T03:51:37;100236.75;;;9.91;100.00
53011;BME280;42803;55.762;38.084;2023-05-21T03:54:09;100245.16;;;9.97;100.00
53011;BME280;42803;55.762;38.084;2023-05-21T03:56:39;100236.97;;;10.03;100.00
53011;BME280;42803;55.762;38.084;2023-05-21T03:59:10;100243.94;;;10.13;100.00
53011;BME280;42803;55.762;38.084;2023-05-21T04:01:39;100250.34;;;10.16;100.00
53011;BME280;42803;55.762;38.084;2023-05-21T04:04:13;100236.66;;;10.38;100.00
53011;BME280;42803;55.762;38.084;2023-05-21T04:06:42;100240.16;;;10.57;100.00
53011;BME280;42803;55.762;38.084;2023-05-21T04:09:12;100236.09;;;10.61;100.00
53011;BME280;42803;55.762;38.084;2023-05-21T04:11:42;100237.69;;;10.69;100.00
53011;BME280;42803;55.762;38.084;2023-05-21T04:14:12;100237.69;;;10.69;100.00
53011;BME280;42803;55.762;38.084;2023-05-21T04:16:41;100231.41;;;10.67;100.00
53011;BME280;42803;55.762;38.084;2023-05-21T04:19:11;100230.09;;;10.72;100.00
53011;BME280;42803;55.762;38.084;2023-05-21T04:21:40;100227.69;;;10.84;100.00
53011;BME280;42803;55.762;38.084;2023-05-21T04:24:14;100222.75;;;11.17;100.00
53011;BME280;42803;55.762;38.084;2023-05-21T04:26:49;100224.34;;;11.46;100.00
53011;BME280;42803;55.762;38.084;2023-05-21T04:29:20;100220.56;;;11.53;100.00
53011;BME280;42803;55.762;38.084;2023-05-21T04:31:50;100217.16;;;11.64;100.00
53011;BME280;42803;55.762;38.084;2023-05-21T04:34:19;100220.25;;;11.70;100.00
53011;BME280;42803;55.762;38.084;2023-05-21T04:36:48;100221.56;;;11.95;100.00
53011;BME280;42803;55.762;38.084;2023-05-21T04:39:18;100210.38;;;12.18;100.00
53011;BME280;42803;55.762;38.084;2023-05-21T04:41:48;100209.50;;;11.98;100.00
53011;BME280;42803;55.762;38.084;2023-05-21T04:44:22;100211.75;;;11.93;100.00
53011;BME280;42803;55.762;38.084;2023-05-21T04:46:52;100208.75;;;11.88;100.00
53011;BME280;42803;55.762;38.084;2023-05-21T04:49:21;100207.81;;;11.67;100.00
53011;BME280;42803;55.762;38.084;2023-05-21T04:51:51;100216.75;;;11.29;100.00
53011;BME280;42803;55.762;38.084;2023-05-21T04:54:20;100207.22;;;11.39;100.00
53011;BME280;42803;55.762;38.084;2023-05-21T04:56:50;100215.81;;;11.59;100.00
53011;BME280;42803;55.762;38.084;2023-05-21T04:59:19;100212.94;;;11.56;100.00
53011;BME280;42803;55.762;38.084;2023-05-21T05:01:49;100216.88;;;11.61;100.00
53011;BME280;42803;55.762;38.084;2023-05-21T05:04:21;100221.22;;;12.13;100.00
53011;BME280;42803;55.762;38.084;2023-05-21T05:06:50;100220.72;;;12.49;100.00
53011;BME280;42803;55.762;38.084;2023-05-21T05:09:38;100221.59;;;12.60;100.00
53011;BME280;42803;55.762;38.084;2023-05-21T05:12:08;100222.91;;;12.55;100.00
53011;BME280;42803;55.762;38.084;2023-05-21T05:14:37;100221.09;;;12.54;100.00
53011;BME280;42803;55.762;38.084;2023-05-21T05:17:08;100221.44;;;12.58;100.00
53011;BME280;42803;55.762;38.084;2023-05-21T05:19:37;100217.00;;;12.57;100.00
53011;BME280;42803;55.762;38.084;2023-05-21T05:22:06;100217.38;;;12.84;100.00
53011;BME280;42803;55.762;38.084;2023-05-21T05:24:35;100217.88;;;13.46;100.00
53011;BME280;42803;55.762;38.084;2023-05-21T05:27:04;100214.53;;;13.70;100.00
53011;BME280;42803;55.762;38.084;2023-05-21T05:29:34;100221.28;;;13.90;100.00
53011;BME280;42803;55.762;38.084;2023-05-21T05:32:04;100216.59;;;13.86;100.00
53011;BME280;42803;55.762;38.084;2023-05-21T05:34:36;100221.34;;;13.56;100.00
53011;BME280;42803;55.762;38.084;2023-05-21T05:37:05;100227.63;;;13.03;100.00
53011;BME280;42803;55.762;38.084;2023-05-21T05:39:34;100230.25;;;13.03;100.00
53011;BME280;42803;55.762;38.084;2023-05-21T05:42:04;100221.31;;;13.01;100.00
53011;BME280;42803;55.762;38.084;2023-05-21T05:44:33;100225.81;;;13.35;100.00
53011;BME280;42803;55.762;38.084;2023-05-21T05:47:03;100221.88;;;13.18;100.00
53011;BME280;42803;55.762;38.084;2023-05-21T05:49:37;100234.44;;;13.01;100.00
53011;BME280;42803;55.762;38.084;2023-05-21T05:52:06;100230.53;;;13.17;100.00
53011;BME280;42803;55.762;38.084;2023-05-21T05:54:35;100218.78;;;13.46;100.00
53011;BME280;42803;55.762;38.084;2023-05-21T05:57:05;100220.69;;;13.71;100.00
53011;BME280;42803;55.762;38.084;2023-05-21T05:59:35;100224.31;;;13.73;100.00
53011;BME280;42803;55.762;38.084;2023-05-21T06:02:05;100216.03;;;13.90;100.00
53011;BME280;42803;55.762;38.084;2023-05-21T06:04:34;100220.47;;;13.91;100.00
53011;BME280;42803;55.762;38.084;2023-05-21T06:07:05;100216.38;;;14.06;100.00
53011;BME280;42803;55.762;38.084;2023-05-21T06:09:35;100216.84;;;14.24;98.08
53011;BME280;42803;55.762;38.084;2023-05-21T06:12:06;100219.31;;;14.34;96.84
53011;BME280;42803;55.762;38.084;2023-05-21T06:14:41;100227.34;;;14.12;93.88
53011;BME280;42803;55.762;38.084;2023-05-21T06:17:12;100220.56;;;13.93;97.80
53011;BME280;42803;55.762;38.084;2023-05-21T06:19:41;100227.09;;;13.98;99.14
53011;BME280;42803;55.762;38.084;2023-05-21T06:22:13;100225.50;;;14.00;100.00
53011;BME280;42803;55.762;38.084;2023-05-21T06:24:43;100227.28;;;13.77;100.00
53011;BME280;42803;55.762;38.084;2023-05-21T06:27:13;100232.00;;;13.36;100.00
53011;BME280;42803;55.762;38.084;2023-05-21T06:29:43;100238.72;;;13.10;100.00
53011;BME280;42803;55.762;38.084;2023-05-21T06:32:13;100235.84;;;13.29;100.00
53011;BME280;42803;55.762;38.084;2023-05-21T06:34:42;100233.41;;;13.54;99.40
53011;BME280;42803;55.762;38.084;2023-05-21T06:37:13;100231.44;;;14.21;92.90
53011;BME280;42803;55.762;38.084;2023-05-21T06:39:43;100233.66;;;14.86;89.72
53011;BME280;42803;55.762;38.084;2023-05-21T06:42:12;100231.16;;;14.76;92.45
53011;BME280;42803;55.762;38.084;2023-05-21T06:44:52;100234.31;;;14.96;93.19
53011;BME280;42803;55.762;38.084;2023-05-21T06:47:29;100233.00;;;14.77;88.14
53011;BME280;42803;55.762;38.084;2023-05-21T06:49:59;100233.88;;;15.26;91.38
53011;BME280;42803;55.762;38.084;2023-05-21T06:52:33;100225.53;;;15.70;87.28
53011;BME280;42803;55.762;38.084;2023-05-21T06:55:03;100224.53;;;15.95;84.91
53011;BME280;42803;55.762;38.084;2023-05-21T06:57:53;100239.91;;;15.75;84.15
53011;BME280;42803;55.762;38.084;2023-05-21T07:00:22;100235.34;;;15.73;85.59
53011;BME280;42803;55.762;38.084;2023-05-21T07:02:51;100227.75;;;15.77;83.55
53011;BME280;42803;55.762;38.084;2023-05-21T07:05:21;100233.47;;;15.83;79.29
53011;BME280;42803;55.762;38.084;2023-05-21T07:07:51;100228.09;;;15.95;77.98
53011;BME280;42803;55.762;38.084;2023-05-21T07:10:21;100218.09;;;16.29;74.40
53011;BME280;42803;55.762;38.084;2023-05-21T07:12:50;100221.50;;;16.28;74.42
53011;BME280;42803;55.762;38.084;2023-05-21T07:15:39;100217.28;;;16.30;76.77
53011;BME280;42803;55.762;38.084;2023-05-21T07:18:08;100219.47;;;15.84;74.64
53011;BME280;42803;55.762;38.084;2023-05-21T07:20:41;100220.53;;;15.36;75.32
53011;BME280;42803;55.762;38.084;2023-05-21T07:23:17;100226.56;;;15.60;75.98
53011;BME280;42803;55.762;38.084;2023-05-21T07:26:08;100222.94;;;16.10;78.13
53011;BME280;42803;55.762;38.084;2023-05-21T07:28:38;100235.28;;;15.84;73.06
53011;BME280;42803;55.762;38.084;2023-05-21T07:31:07;100228.75;;;15.66;75.50
53011;BME280;42803;55.762;38.084;2023-05-21T07:33:43;100226.13;;;15.66;76.82
53011;BME280;42803;55.762;38.084;2023-05-21T07:36:13;100231.25;;;16.29;73.89
53011;BME280;42803;55.762;38.084;2023-05-21T07:38:44;100232.34;;;16.46;71.91
53011;BME280;42803;55.762;38.084;2023-05-21T07:41:14;100231.81;;;15.86;72.32
53011;BME280;42803;55.762;38.084;2023-05-21T07:43:46;100228.75;;;15.66;72.76
53011;BME280;42803;55.762;38.084;2023-05-21T07:49:03;100228.84;;;15.68;76.08
53011;BME280;42803;55.762;38.084;2023-05-21T07:51:32;100227.84;;;15.66;73.48
53011;BME280;42803;55.762;38.084;2023-05-21T07:54:03;100225.97;;;16.16;74.85
53011;BME280;42803;55.762;38.084;2023-05-21T07:56:51;100229.53;;;16.30;71.71
53011;BME280;42803;55.762;38.084;2023-05-21T07:59:50;100225.03;;;16.02;74.35
53011;BME280;42803;55.762;38.084;2023-05-21T08:02:20;100234.97;;;15.93;80.31
53011;BME280;42803;55.762;38.084;2023-05-21T08:04:50;100232.06;;;16.15;77.81
53011;BME280;42803;55.762;38.084;2023-05-21T08:07:40;100228.78;;;16.06;77.08
53011;BME280;42803;55.762;38.084;2023-05-21T08:10:11;100239.94;;;15.64;78.90
53011;BME280;42803;55.762;38.084;2023-05-21T08:12:40;100242.31;;;15.47;80.10
53011;BME280;42803;55.762;38.084;2023-05-21T08:15:10;100231.22;;;15.76;78.79
53011;BME280;42803;55.762;38.084;2023-05-21T08:17:43;100232.88;;;16.27;77.39
53011;BME280;42803;55.762;38.084;2023-05-21T08:20:13;100236.13;;;16.23;75.99
53011;BME280;42803;55.762;38.084;2023-05-21T08:22:44;100229.91;;;15.96;75.20
53011;BME280;42803;55.762;38.084;2023-05-21T08:25:17;100223.56;;;16.19;79.61
53011;BME280;42803;55.762;38.084;2023-05-21T08:27:46;100224.34;;;16.05;77.88
53011;BME280;42803;55.762;38.084;2023-05-21T08:30:19;100223.13;;;16.13;75.83
53011;BME280;42803;55.762;38.084;2023-05-21T08:32:49;100227.88;;;16.72;72.40
53011;BME280;42803;55.762;38.084;2023-05-21T08:35:20;100232.28;;;16.45;72.06
53011;BME280;42803;55.762;38.084;2023-05-21T08:38:06;100224.44;;;16.46;73.00
53011;BME280;42803;55.762;38.084;2023-05-21T08:40:58;100228.50;;;17.37;68.71
53011;BME280;42803;55.762;38.084;2023-05-21T08:43:29;100223.72;;;18.34;65.02
53011;BME280;42803;55.762;38.084;2023-05-21T08:45:59;100224.94;;;18.24;66.27
53011;BME280;42803;55.762;38.084;2023-05-21T08:48:36;100223.28;;;17.82;67.42
53011;BME280;42803;55.762;38.084;2023-05-21T08:51:05;100230.25;;;17.66;69.16
53011;BME280;42803;55.762;38.084;2023-05-21T08:53:42;100215.03;;;17.62;68.15
53011;BME280;42803;55.762;38.084;2023-05-21T08:56:17;100220.72;;;17.68;66.05
53011;BME280;42803;55.762;38.084;2023-05-21T08:58:51;100213.53;;;18.10;63.96
53011;BME280;42803;55.762;38.084;2023-05-21T09:01:23;100214.38;;;18.24;63.49
53011;BME280;42803;55.762;38.084;2023-05-21T09:04:11;100213.38;;;18.53;61.95
53011;BME280;42803;55.762;38.084;2023-05-21T09:06:51;100213.81;;;18.15;60.48
53011;BME280;42803;55.762;38.084;2023-05-21T09:09:52;100215.03;;;17.47;65.73
53011;BME280;42803;55.762;38.084;2023-05-21T09:12:24;100216.31;;;17.54;65.87
53011;BME280;42803;55.762;38.084;2023-05-21T09:14:55;100212.00;;;17.26;63.76
53011;BME280;42803;55.762;38.084;2023-05-21T09:17:31;100216.84;;;17.34;62.60
53011;BME280;42803;55.762;38.084;2023-05-21T09:20:13;100202.19;;;17.39;62.23
53011;BME280;42803;55.762;38.084;2023-05-21T09:22:53;100199.81;;;18.47;62.85
53011;BME280;42803;55.762;38.084;2023-05-21T09:25:24;100199.69;;;19.40;57.16
53011;BME280;42803;55.762;38.084;2023-05-21T09:27:58;100205.78;;;20.24;55.12
53011;BME280;42803;55.762;38.084;2023-05-21T09:30:27;100201.53;;;20.10;55.91
53011;BME280;42803;55.762;38.084;2023-05-21T09:33:00;100202.78;;;19.49;56.29
53011;BME280;42803;55.762;38.084;2023-05-21T09:35:32;100204.72;;;18.10;59.15
53011;BME280;42803;55.762;38.084;2023-05-21T09:38:07;100212.56;;;17.78;62.43
53011;BME280;42803;55.762;38.084;2023-05-21T09:40:42;100213.47;;;17.94;61.51
53011;BME280;42803;55.762;38.084;2023-05-21T09:43:17;100215.09;;;18.21;58.71
53011;BME280;42803;55.762;38.084;2023-05-21T09:45:50;100221.00;;;18.32;60.11
53011;BME280;42803;55.762;38.084;2023-05-21T09:48:35;100209.50;;;18.78;58.00
53011;BME280;42803;55.762;38.084;2023-05-21T09:51:11;100212.06;;;18.76;64.18
53011;BME280;42803;55.762;38.084;2023-05-21T09:53:44;100213.06;;;18.32;60.01
53011;BME280;42803;55.762;38.084;2023-05-21T09:56:18;100214.97;;;18.20;61.79
53011;BME280;42803;55.762;38.084;2023-05-21T09:58:52;100216.53;;;17.72;60.83
53011;BME280;42803;55.762;38.084;2023-05-21T10:01:22;100222.16;;;17.48;60.71
53011;BME280;42803;55.762;38.084;2023-05-21T10:03:54;100222.88;;;17.61;61.52
53011;BME280;42803;55.762;38.084;2023-05-21T10:06:26;100215.47;;;17.98;59.23
53011;BME280;42803;55.762;38.084;2023-05-21T10:08:56;100215.81;;;18.50;57.79
53011;BME280;42803;55.762;38.084;2023-05-21T10:11:29;100207.13;;;18.98;55.59
53011;BME280;42803;55.762;38.084;2023-05-21T10:14:06;100217.16;;;18.58;56.08
53011;BME280;42803;55.762;38.084;2023-05-21T10:16:36;100214.38;;;18.09;57.29
53011;BME280;42803;55.762;38.084;2023-05-21T10:19:05;100218.97;;;17.54;58.72
53011;BME280;42803;55.762;38.084;2023-05-21T10:21:37;100215.19;;;17.21;60.35
53011;BME280;42803;55.762;38.084;2023-05-21T10:24:08;100226.03;;;17.12;60.81
53011;BME280;42803;55.762;38.084;2023-05-21T10:26:38;100215.13;;;17.06;62.99
53011;BME280;42803;55.762;38.084;2023-05-21T10:29:08;100221.16;;;17.18;63.56
53011;BME280;42803;55.762;38.084;2023-05-21T10:31:38;100217.13;;;17.38;63.26
53011;BME280;42803;55.762;38.084;2023-05-21T10:34:07;100220.38;;;17.92;61.82
53011;BME280;42803;55.762;38.084;2023-05-21T10:36:39;100219.09;;;18.61;59.54
53011;BME280;42803;55.762;38.084;2023-05-21T10:39:11;100217.09;;;19.53;58.42
53011;BME280;42803;55.762;38.084;2023-05-21T10:41:48;100221.31;;;19.82;55.67
53011;BME280;42803;55.762;38.084;2023-05-21T10:44:30;100216.38;;;20.78;53.13
53011;BME280;42803;55.762;38.084;2023-05-21T10:47:25;100204.59;;;21.10;51.13
53011;BME280;42803;55.762;38.084;2023-05-21T10:50:09;100206.91;;;21.02;51.45
53011;BME280;42803;55.762;38.084;2023-05-21T10:52:54;100213.78;;;20.26;52.43
53011;BME280;42803;55.762;38.084;2023-05-21T10:58:34;100220.94;;;20.27;50.44
53011;BME280;42803;55.762;38.084;2023-05-21T11:01:09;100216.69;;;20.12;51.44
53011;BME280;42803;55.762;38.084;2023-05-21T11:03:38;100218.16;;;19.89;52.56
53011;BME280;42803;55.762;38.084;2023-05-21T11:06:09;100217.22;;;19.55;54.70
53011;BME280;42803;55.762;38.084;2023-05-21T11:08:46;100214.31;;;19.34;52.44
53011;BME280;42803;55.762;38.084;2023-05-21T11:11:38;100215.53;;;18.91;54.26
53011;BME280;42803;55.762;38.084;2023-05-21T11:14:27;100215.47;;;18.73;54.47
53011;BME280;42803;55.762;38.084;2023-05-21T11:17:01;100215.91;;;18.66;54.90
53011;BME280;42803;55.762;38.084;2023-05-21T11:19:49;100218.94;;;18.43;55.92
53011;BME280;42803;55.762;38.084;2023-05-21T11:22:21;100219.97;;;18.30;56.56
53011;BME280;42803;55.762;38.084;2023-05-21T11:24:52;100215.41;;;18.42;56.10
53011;BME280;42803;55.762;38.084;2023-05-21T11:27:32;100215.59;;;18.31;58.19
53011;BME280;42803;55.762;38.084;2023-05-21T11:30:05;100217.09;;;18.25;55.98
53011;BME280;42803;55.762;38.084;2023-05-21T11:35:26;100205.22;;;19.61;55.35
53011;BME280;42803;55.762;38.084;2023-05-21T11:37:55;100209.47;;;20.10;53.72
53011;BME280;42803;55.762;38.084;2023-05-21T11:41:00;100205.22;;;19.61;52.00
53011;BME280;42803;55.762;38.084;2023-05-21T11:43:29;100201.44;;;19.23;52.71
53011;BME280;42803;55.762;38.084;2023-05-21T11:45:59;100210.19;;;19.39;53.87
53011;BME280;42803;55.762;38.084;2023-05-21T11:51:37;100199.66;;;20.43;50.43
53011;BME280;42803;55.762;38.084;2023-05-21T11:57:01;100199.25;;;21.28;49.67
53011;BME280;42803;55.762;38.084;2023-05-21T11:59:30;100203.13;;;21.75;49.55
53011;BME280;42803;55.762;38.084;2023-05-21T12:02:01;100199.38;;;21.70;49.39
53011;BME280;42803;55.762;38.084;2023-05-21T12:04:51;100202.41;;;21.58;49.60
53011;BME280;42803;55.762;38.084;2023-05-21T12:07:20;100215.41;;;21.52;49.25
53011;BME280;42803;55.762;38.084;2023-05-21T12:09:50;100212.22;;;21.02;48.99
53011;BME280;42803;55.762;38.084;2023-05-21T12:12:20;100218.66;;;20.70;50.73
53011;BME280;42803;55.762;38.084;2023-05-21T12:14:51;100215.13;;;20.52;51.06
53011;BME280;42803;55.762;38.084;2023-05-21T12:17:21;100216.91;;;20.71;50.52
53011;BME280;42803;55.762;38.084;2023-05-21T12:19:53;100212.09;;;20.99;50.29
53011;BME280;42803;55.762;38.084;2023-05-21T12:22:23;100207.91;;;21.04;52.04
53011;BME280;42803;55.762;38.084;2023-05-21T12:25:12;100211.25;;;21.00;53.51
53011;BME280;42803;55.762;38.084;2023-05-21T12:27:42;100213.22;;;21.24;52.39
53011;BME280;42803;55.762;38.084;2023-05-21T12:30:12;100204.41;;;21.63;49.94
53011;BME280;42803;55.762;38.084;2023-05-21T12:32:42;100204.44;;;22.05;47.60
53011;BME280;42803;55.762;38.084;2023-05-21T12:35:21;100205.97;;;22.20;46.99
53011;BME280;42803;55.762;38.084;2023-05-21T12:37:51;100210.19;;;22.35;47.12
53011;BME280;42803;55.762;38.084;2023-05-21T12:40:21;100210.06;;;22.32;46.82
53011;BME280;42803;55.762;38.084;2023-05-21T12:42:50;100201.06;;;22.29;46.87
53011;BME280;42803;55.762;38.084;2023-05-21T12:45:19;100214.84;;;21.99;46.09
53011;BME280;42803;55.762;38.084;2023-05-21T12:47:49;100204.97;;;21.76;47.52
53011;BME280;42803;55.762;38.084;2023-05-21T12:50:25;100207.06;;;21.83;47.56
53011;BME280;42803;55.762;38.084;2023-05-21T12:52:55;100215.50;;;21.34;47.25
53011;BME280;42803;55.762;38.084;2023-05-21T12:55:25;100210.38;;;21.19;48.83
53011;BME280;42803;55.762;38.084;2023-05-21T13:00:54;100212.09;;;20.99;48.86
53011;BME280;42803;55.762;38.084;2023-05-21T13:03:59;100210.22;;;21.16;47.88
53011;BME280;42803;55.762;38.084;2023-05-21T13:06:40;100214.66;;;21.35;49.03
53011;BME280;42803;55.762;38.084;2023-05-21T13:09:28;100210.38;;;21.58;45.61
53011;BME280;42803;55.762;38.084;2023-05-21T13:11:57;100214.03;;;21.60;45.11
53011;BME280;42803;55.762;38.084;2023-05-21T13:14:27;100218.06;;;21.52;45.74
53011;BME280;42803;55.762;38.084;2023-05-21T13:16:56;100214.09;;;21.42;44.84
53011;BME280;42803;55.762;38.084;2023-05-21T13:19:26;100222.59;;;21.15;44.54
53011;BME280;42803;55.762;38.084;2023-05-21T13:21:57;100229.09;;;21.03;45.70